sensor_id;sensor_type;location;lat;lon;timestamp;pressure;altitude;pressure_sealevel;temperature;humidity
10978;BME280;5542;48.272;10.794;2023-09-19T00:02:17;95421.63;;;17.05;79.21
10978;BME280;5542;48.272;10.794;2023-09-19T00:04:44;95417.91;;;17.06;79.30
10978;BME280;5542;48.272;10.794;2023-09-19T00:07:10;95417.31;;;17.09;79.10
10978;BME280;5542;48.272;10.794;2023-09-19T00:09:37;95415.50;;;17.09;78.82
10978;BME280;5542;48.272;10.794;2023-09-19T00:12:05;95415.66;;;17.18;78.63
10978;BME280;5542;48.272;10.794;2023-09-19T00:14:32;95409.59;;;17.12;78.64
10978;BME280;5542;48.272;10.794;2023-09-19T00:17:01;95414.41;;;17.10;79.08
10978;BME280;5542;48.272;10.794;2023-09-19T00:19:32;95410.34;;;17.18;78.51
10978;BME280;5542;48.272;10.794;2023-09-19T00:21:59;95418.09;;;17.14;78.69
10978;BME280;5542;48.272;10.794;2023-09-19T00:24:26;95410.13;;;17.14;78.93
10978;BME280;5542;48.272;10.794;2023-09-19T00:26:53;95420.25;;;17.07;78.90
10978;BME280;5542;48.272;10.794;2023-09-19T00:29:20;95423.00;;;16.97;79.63
10978;BME280;5542;48.272;10.794;2023-09-19T00:31:48;95428.28;;;17.02;79.43
10978;BME280;5542;48.272;10.794;2023-09-19T00:34:15;95437.56;;;17.05;79.35
10978;BME280;5542;48.272;10.794;2023-09-19T00:36:43;95456.19;;;17.00;79.95
10978;BME280;5542;48.272;10.794;2023-09-19T00:39:10;95453.78;;;16.98;80.09
10978;BME280;5542;48.272;10.794;2023-09-19T00:41:37;95458.56;;;17.01;80.42
10978;BME280;5542;48.272;10.794;2023-09-19T00:44:04;95463.28;;;17.14;80.09
10978;BME280;5542;48.272;10.794;2023-09-19T00:46:31;95458.50;;;17.11;80.20
10978;BME280;5542;48.272;10.794;2023-09-19T00:48:58;95455.03;;;17.16;80.65
10978;BME280;5542;48.272;10.794;2023-09-19T00:51:26;95455.91;;;17.01;80.78
10978;BME280;5542;48.272;10.794;2023-09-19T00:53:54;95451.94;;;16.99;81.13
10978;BME280;5542;48.272;10.794;2023-09-19T00:56:21;95444.25;;;16.97;81.58
10978;BME280;5542;48.272;10.794;2023-09-19T01:02:10;95448.44;;;17.03;81.21
10978;BME280;5542;48.272;10.794;2023-09-19T01:04:40;95446.84;;;17.07;81.17
10978;BME280;5542;48.272;10.794;2023-09-19T01:07:07;95451.09;;;17.03;81.02
10978;BME280;5542;48.272;10.794;2023-09-19T01:09:35;95445.78;;;17.03;81.09
10978;BME280;5542;48.272;10.794;2023-09-19T01:12:04;95455.38;;;16.99;81.59
10978;BME280;5542;48.272;10.794;2023-09-19T01:14:38;95464.94;;;17.05;81.01
10978;BME280;5542;48.272;10.794;2023-09-19T01:17:14;95469.47;;;17.00;81.02
10978;BME280;5542;48.272;10.794;2023-09-19T01:20:20;95464.38;;;17.03;81.22
10978;BME280;5542;48.272;10.794;2023-09-19T01:23:05;95455.06;;;17.11;80.87
10978;BME280;5542;48.272;10.794;2023-09-19T01:25:55;95452.72;;;17.04;81.07
10978;BME280;5542;48.272;10.794;2023-09-19T01:28:32;95457.72;;;17.11;80.75
10978;BME280;5542;48.272;10.794;2023-09-19T01:31:04;95468.41;;;17.01;81.46
10978;BME280;5542;48.272;10.794;2023-09-19T01:33:58;95468.16;;;16.97;81.19
10978;BME280;5542;48.272;10.794;2023-09-19T01:36:31;95464.69;;;17.02;80.75
10978;BME280;5542;48.272;10.794;2023-09-19T01:39:01;95469.72;;;16.98;81.17
10978;BME280;5542;48.272;10.794;2023-09-19T01:41:48;95471.34;;;16.94;81.58
10978;BME280;5542;48.272;10.794;2023-09-19T01:44:21;95471.09;;;16.96;81.54
10978;BME280;5542;48.272;10.794;2023-09-19T01:46:50;95471.41;;;16.84;81.83
10978;BME280;5542;48.272;10.794;2023-09-19T01:49:24;95466.31;;;16.93;81.56
10978;BME280;5542;48.272;10.794;2023-09-19T01:51:56;95465.78;;;16.96;81.29
10978;BME280;5542;48.272;10.794;2023-09-19T01:54:27;95466.38;;;16.82;81.92
10978;BME280;5542;48.272;10.794;2023-09-19T01:57:01;95472.22;;;16.79;81.57
10978;BME280;5542;48.272;10.794;2023-09-19T01:59:35;95465.81;;;16.91;81.42
10978;BME280;5542;48.272;10.794;2023-09-19T02:02:07;95473.53;;;16.87;81.24
10978;BME280;5542;48.272;10.794;2023-09-19T02:04:35;95476.72;;;16.84;81.08
10978;BME280;5542;48.272;10.794;2023-09-19T02:07:03;95484.44;;;16.80;81.65
10978;BME280;5542;48.272;10.794;2023-09-19T02:09:31;95485.53;;;16.74;82.03
10978;BME280;5542;48.272;10.794;2023-09-19T02:11:58;95483.41;;;16.76;81.95
10978;BME280;5542;48.272;10.794;2023-09-19T02:14:25;95493.19;;;16.86;81.12
10978;BME280;5542;48.272;10.794;2023-09-19T02:16:52;95487.91;;;16.76;81.14
10978;BME280;5542;48.272;10.794;2023-09-19T02:19:20;95486.31;;;16.70;81.00
10978;BME280;5542;48.272;10.794;2023-09-19T02:21:47;95490.88;;;16.59;81.61
10978;BME280;5542;48.272;10.794;2023-09-19T02:24:15;95485.56;;;16.59;81.41
10978;BME280;5542;48.272;10.794;2023-09-19T02:26:41;95480.78;;;16.61;81.31
10978;BME280;5542;48.272;10.794;2023-09-19T02:29:09;95492.75;;;16.58;81.19
10978;BME280;5542;48.272;10.794;2023-09-19T02:31:38;95492.19;;;16.72;80.82
10978;BME280;5542;48.272;10.794;2023-09-19T02:34:05;95490.84;;;16.64;80.79
10978;BME280;5542;48.272;10.794;2023-09-19T02:36:36;95492.41;;;16.70;80.72
10978;BME280;5542;48.272;10.794;2023-09-19T02:39:03;95493.50;;;16.69;80.54
10978;BME280;5542;48.272;10.794;2023-09-19T02:41:31;95496.41;;;16.78;80.30
10978;BME280;5542;48.272;10.794;2023-09-19T02:43:58;95501.16;;;16.71;80.26
10978;BME280;5542;48.272;10.794;2023-09-19T02:46:27;95499.63;;;16.59;80.86
10978;BME280;5542;48.272;10.794;2023-09-19T02:48:53;95506.53;;;16.60;81.14
10978;BME280;5542;48.272;10.794;2023-09-19T02:51:20;95513.94;;;16.69;80.36
10978;BME280;5542;48.272;10.794;2023-09-19T02:53:49;95516.31;;;16.80;80.16
10978;BME280;5542;48.272;10.794;2023-09-19T02:56:17;95509.66;;;16.83;79.78
10978;BME280;5542;48.272;10.794;2023-09-19T02:58:44;95516.06;;;16.77;79.97
10978;BME280;5542;48.272;10.794;2023-09-19T03:01:11;95513.66;;;16.70;80.35
10978;BME280;5542;48.272;10.794;2023-09-19T03:03:38;95520.03;;;16.79;80.01
10978;BME280;5542;48.272;10.794;2023-09-19T03:06:05;95517.69;;;16.73;80.20
10978;BME280;5542;48.272;10.794;2023-09-19T03:08:34;95521.88;;;16.84;80.05
10978;BME280;5542;48.272;10.794;2023-09-19T03:11:05;95523.25;;;16.76;80.13
10978;BME280;5542;48.272;10.794;2023-09-19T03:13:34;95515.81;;;16.68;80.34
10978;BME280;5542;48.272;10.794;2023-09-19T03:16:03;95520.59;;;16.71;80.60
10978;BME280;5542;48.272;10.794;2023-09-19T03:18:31;95518.97;;;16.75;80.32
10978;BME280;5542;48.272;10.794;2023-09-19T03:20:58;95518.19;;;16.75;79.92
10978;BME280;5542;48.272;10.794;2023-09-19T03:23:26;95521.41;;;16.67;80.79
10978;BME280;5542;48.272;10.794;2023-09-19T03:25:53;95524.03;;;16.61;80.72
10978;BME280;5542;48.272;10.794;2023-09-19T03:28:21;95522.41;;;16.71;80.76
10978;BME280;5542;48.272;10.794;2023-09-19T03:30:57;95534.41;;;16.73;80.54
10978;BME280;5542;48.272;10.794;2023-09-19T03:33:24;95525.66;;;16.62;81.03
10978;BME280;5542;48.272;10.794;2023-09-19T03:35:52;95523.50;;;16.70;81.04
10978;BME280;5542;48.272;10.794;2023-09-19T03:38:19;95529.34;;;16.77;80.79
10978;BME280;5542;48.272;10.794;2023-09-19T03:40:46;95526.44;;;16.68;80.64
10978;BME280;5542;48.272;10.794;2023-09-19T03:43:14;95523.78;;;16.68;80.67
10978;BME280;5542;48.272;10.794;2023-09-19T03:45:42;95516.59;;;16.69;80.86
10978;BME280;5542;48.272;10.794;2023-09-19T03:48:08;95518.72;;;16.61;81.36
10978;BME280;5542;48.272;10.794;2023-09-19T03:50:35;95520.84;;;16.70;81.49
10978;BME280;5542;48.272;10.794;2023-09-19T03:53:02;95520.59;;;16.71;81.29
10978;BME280;5542;48.272;10.794;2023-09-19T03:55:29;95530.94;;;16.73;81.02
10978;BME280;5542;48.272;10.794;2023-09-19T03:57:56;95524.56;;;16.69;81.12
10978;BME280;5542;48.272;10.794;2023-09-19T04:00:23;95532.00;;;16.77;80.65
10978;BME280;5542;48.272;10.794;2023-09-19T04:02:53;95534.91;;;16.65;80.96
10978;BME280;5542;48.272;10.794;2023-09-19T04:05:21;95530.94;;;16.73;80.68
10978;BME280;5542;48.272;10.794;2023-09-19T04:07:48;95526.13;;;16.80;80.14
10978;BME280;5542;48.272;10.794;2023-09-19T04:10:15;95526.44;;;16.73;80.81
10978;BME280;5542;48.272;10.794;2023-09-19T04:12:50;95525.34;;;16.69;81.65
10978;BME280;5542;48.272;10.794;2023-09-19T04:15:17;95543.97;;;16.59;82.49
10978;BME280;5542;48.272;10.794;2023-09-19T04:17:44;95533.63;;;16.62;82.15
10978;BME280;5542;48.272;10.794;2023-09-19T04:20:12;95533.06;;;16.60;82.19
10978;BME280;5542;48.272;10.794;2023-09-19T04:22:39;95534.44;;;16.58;82.85
10978;BME280;5542;48.272;10.794;2023-09-19T04:25:06;95540.00;;;16.51;83.08
10978;BME280;5542;48.272;10.794;2023-09-19T04:27:33;95541.84;;;16.56;82.96
10978;BME280;5542;48.272;10.794;2023-09-19T04:30:00;95548.50;;;16.53;83.44
10978;BME280;5542;48.272;10.794;2023-09-19T04:32:29;95547.97;;;16.51;83.28
10978;BME280;5542;48.272;10.794;2023-09-19T04:34:57;95545.84;;;16.53;83.34
10978;BME280;5542;48.272;10.794;2023-09-19T04:37:29;95551.16;;;16.58;82.92
10978;BME280;5542;48.272;10.794;2023-09-19T04:39:55;95555.38;;;16.59;82.58
10978;BME280;5542;48.272;10.794;2023-09-19T04:42:22;95555.91;;;16.56;82.95
10978;BME280;5542;48.272;10.794;2023-09-19T04:44:50;95553.25;;;16.61;82.82
10978;BME280;5542;48.272;10.794;2023-09-19T04:47:19;95557.78;;;16.56;82.48
10978;BME280;5542;48.272;10.794;2023-09-19T04:49:46;95570.22;;;16.71;81.72
10978;BME280;5542;48.272;10.794;2023-09-19T04:52:13;95564.13;;;16.70;81.59
10978;BME280;5542;48.272;10.794;2023-09-19T04:54:42;95567.34;;;16.62;82.07
10978;BME280;5542;48.272;10.794;2023-09-19T04:57:09;95568.13;;;16.62;81.66
10978;BME280;5542;48.272;10.794;2023-09-19T04:59:35;95567.06;;;16.58;82.08
10978;BME280;5542;48.272;10.794;2023-09-19T05:02:03;95571.81;;;16.61;82.12
10978;BME280;5542;48.272;10.794;2023-09-19T05:04:29;95584.59;;;16.59;82.11
10978;BME280;5542;48.272;10.794;2023-09-19T05:06:57;95576.38;;;16.51;82.43
10978;BME280;5542;48.272;10.794;2023-09-19T05:09:26;95581.94;;;16.59;81.43
10978;BME280;5542;48.272;10.794;2023-09-19T05:11:54;95573.69;;;16.61;81.43
10978;BME280;5542;48.272;10.794;2023-09-19T05:14:21;95589.66;;;16.51;82.20
10978;BME280;5542;48.272;10.794;2023-09-19T05:16:48;95587.78;;;16.51;82.46
10978;BME280;5542;48.272;10.794;2023-09-19T05:19:15;95591.50;;;16.50;82.94
10978;BME280;5542;48.272;10.794;2023-09-19T05:21:42;95591.75;;;16.59;82.24
10978;BME280;5542;48.272;10.794;2023-09-19T05:24:08;95602.09;;;16.60;81.97
10978;BME280;5542;48.272;10.794;2023-09-19T05:26:36;95597.84;;;16.64;81.68
10978;BME280;5542;48.272;10.794;2023-09-19T05:29:04;95603.16;;;16.80;80.87
10978;BME280;5542;48.272;10.794;2023-09-19T05:31:33;95604.75;;;16.81;80.52
10978;BME280;5542;48.272;10.794;2023-09-19T05:34:01;95612.72;;;16.76;80.77
10978;BME280;5542;48.272;10.794;2023-09-19T05:36:28;95616.44;;;16.80;80.25
10978;BME280;5542;48.272;10.794;2023-09-19T05:38:55;95614.56;;;16.80;80.63
10978;BME280;5542;48.272;10.794;2023-09-19T05:41:22;95616.44;;;16.75;80.77
10978;BME280;5542;48.272;10.794;2023-09-19T05:43:49;95620.44;;;16.77;81.16
10978;BME280;5542;48.272;10.794;2023-09-19T05:46:17;95619.63;;;16.67;82.27
10978;BME280;5542;48.272;10.794;2023-09-19T05:48:44;95626.00;;;16.65;82.85
10978;BME280;5542;48.272;10.794;2023-09-19T05:51:15;95620.16;;;16.69;83.11
10978;BME280;5542;48.272;10.794;2023-09-19T05:53:43;95622.56;;;16.60;83.61
10978;BME280;5542;48.272;10.794;2023-09-19T05:56:10;95629.19;;;16.62;84.02
10978;BME280;5542;48.272;10.794;2023-09-19T05:58:36;95627.34;;;16.63;84.29
10978;BME280;5542;48.272;10.794;2023-09-19T06:01:03;95621.47;;;16.66;83.95
10978;BME280;5542;48.272;10.794;2023-09-19T06:03:33;95628.41;;;16.72;83.61
10978;BME280;5542;48.272;10.794;2023-09-19T06:06:00;95631.28;;;16.71;83.42
10978;BME280;5542;48.272;10.794;2023-09-19T06:08:27;95636.88;;;16.69;83.22
10978;BME280;5542;48.272;10.794;2023-09-19T06:10:55;95629.22;;;16.73;82.90
10978;BME280;5542;48.272;10.794;2023-09-19T06:13:22;95637.44;;;16.76;82.99
10978;BME280;5542;48.272;10.794;2023-09-19T06:15:51;95626.00;;;16.76;81.95
10978;BME280;5542;48.272;10.794;2023-09-19T06:18:19;95633.16;;;16.80;82.63
10978;BME280;5542;48.272;10.794;2023-09-19T06:20:48;95635.28;;;16.78;81.90
10978;BME280;5542;48.272;10.794;2023-09-19T06:23:16;95631.88;;;16.73;82.63
10978;BME280;5542;48.272;10.794;2023-09-19T06:25:43;95639.03;;;16.72;82.50
10978;BME280;5542;48.272;10.794;2023-09-19T06:28:09;95637.69;;;16.80;81.87
10978;BME280;5542;48.272;10.794;2023-09-19T06:30:38;95640.06;;;16.71;81.91
10978;BME280;5542;48.272;10.794;2023-09-19T06:33:06;95649.38;;;16.79;81.92
10978;BME280;5542;48.272;10.794;2023-09-19T06:35:33;95640.59;;;16.88;82.03
10978;BME280;5542;48.272;10.794;2023-09-19T06:38:03;95649.06;;;16.96;80.37
10978;BME280;5542;48.272;10.794;2023-09-19T06:40:31;95649.09;;;16.91;80.26
10978;BME280;5542;48.272;10.794;2023-09-19T06:42:58;95649.34;;;16.84;80.37
10978;BME280;5542;48.272;10.794;2023-09-19T06:45:27;95652.00;;;16.89;80.43
10978;BME280;5542;48.272;10.794;2023-09-19T06:47:54;95649.34;;;16.84;81.46
10978;BME280;5542;48.272;10.794;2023-09-19T06:50:23;95656.00;;;16.92;81.17
10978;BME280;5542;48.272;10.794;2023-09-19T06:52:51;95649.03;;;17.11;80.47
10978;BME280;5542;48.272;10.794;2023-09-19T06:55:21;95660.97;;;17.13;80.52
10978;BME280;5542;48.272;10.794;2023-09-19T06:57:50;95656.59;;;17.48;79.50
10978;BME280;5542;48.272;10.794;2023-09-19T07:00:17;95665.59;;;17.57;78.07
10978;BME280;5542;48.272;10.794;2023-09-19T07:02:55;95666.06;;;17.64;78.06
10978;BME280;5542;48.272;10.794;2023-09-19T07:05:21;95669.81;;;17.63;78.34
10978;BME280;5542;48.272;10.794;2023-09-19T07:07:48;95667.38;;;17.72;78.66
10978;BME280;5542;48.272;10.794;2023-09-19T07:10:15;95676.41;;;17.71;77.67
10978;BME280;5542;48.272;10.794;2023-09-19T07:12:43;95672.69;;;17.72;76.70
10978;BME280;5542;48.272;10.794;2023-09-19T07:15:09;95677.75;;;17.74;77.34
10978;BME280;5542;48.272;10.794;2023-09-19T07:17:36;95687.91;;;17.61;78.08
10978;BME280;5542;48.272;10.794;2023-09-19T07:20:04;95684.16;;;17.67;77.55
10978;BME280;5542;48.272;10.794;2023-09-19T07:22:34;95689.22;;;17.64;77.59
10978;BME280;5542;48.272;10.794;2023-09-19T07:25:01;95673.25;;;17.64;77.82
10978;BME280;5542;48.272;10.794;2023-09-19T07:27:28;95680.66;;;17.77;78.28
10978;BME280;5542;48.272;10.794;2023-09-19T07:29:56;95683.63;;;18.15;75.72
10978;BME280;5542;48.272;10.794;2023-09-19T07:32:24;95675.16;;;18.47;75.08
10978;BME280;5542;48.272;10.794;2023-09-19T07:34:51;95673.63;;;18.99;72.82
10978;BME280;5542;48.272;10.794;2023-09-19T07:37:18;95671.53;;;19.20;71.07
10978;BME280;5542;48.272;10.794;2023-09-19T07:39:43;95670.81;;;19.57;70.25
10978;BME280;5542;48.272;10.794;2023-09-19T07:42:10;95663.88;;;19.80;68.95
10978;BME280;5542;48.272;10.794;2023-09-19T07:44:43;95674.25;;;20.19;68.03
10978;BME280;5542;48.272;10.794;2023-09-19T07:47:13;95676.84;;;20.25;65.33
10978;BME280;5542;48.272;10.794;2023-09-19T07:49:40;95675.25;;;20.42;65.67
10978;BME280;5542;48.272;10.794;2023-09-19T07:52:07;95679.09;;;20.69;64.13
10978;BME280;5542;48.272;10.794;2023-09-19T07:54:34;95677.78;;;20.99;64.21
10978;BME280;5542;48.272;10.794;2023-09-19T07:57:01;95675.06;;;21.32;61.82
10978;BME280;5542;48.272;10.794;2023-09-19T07:59:28;95685.06;;;21.54;61.08
10978;BME280;5542;48.272;10.794;2023-09-19T08:01:55;95684.06;;;21.36;60.85
10978;BME280;5542;48.272;10.794;2023-09-19T08:04:23;95683.66;;;21.29;60.01
10978;BME280;5542;48.272;10.794;2023-09-19T08:06:51;95688.88;;;21.20;62.22
10978;BME280;5542;48.272;10.794;2023-09-19T08:09:18;95692.81;;;21.41;60.61
10978;BME280;5542;48.272;10.794;2023-09-19T08:11:46;95688.72;;;21.44;62.03
10978;BME280;5542;48.272;10.794;2023-09-19T08:14:12;95690.84;;;21.97;60.18
10978;BME280;5542;48.272;10.794;2023-09-19T08:16:40;95680.63;;;21.99;57.26
10978;BME280;5542;48.272;10.794;2023-09-19T08:19:08;95677.56;;;21.92;57.64
10978;BME280;5542;48.272;10.794;2023-09-19T08:21:38;95685.91;;;21.77;57.90
10978;BME280;5542;48.272;10.794;2023-09-19T08:24:05;95690.50;;;21.62;59.01
10978;BME280;5542;48.272;10.794;2023-09-19T08:26:31;95688.28;;;21.78;57.83
10978;BME280;5542;48.272;10.794;2023-09-19T08:28:58;95686.84;;;22.08;57.22
10978;BME280;5542;48.272;10.794;2023-09-19T08:31:30;95692.00;;;22.18;56.61
10978;BME280;5542;48.272;10.794;2023-09-19T08:33:56;95691.03;;;22.14;55.44
10978;BME280;5542;48.272;10.794;2023-09-19T08:36:23;95685.75;;;22.09;55.71
10978;BME280;5542;48.272;10.794;2023-09-19T08:38:51;95687.41;;;22.33;55.96
10978;BME280;5542;48.272;10.794;2023-09-19T08:41:18;95690.13;;;22.64;54.66
10978;BME280;5542;48.272;10.794;2023-09-19T08:43:45;95689.88;;;22.74;53.15
10978;BME280;5542;48.272;10.794;2023-09-19T08:46:15;95685.50;;;22.56;54.11
10978;BME280;5542;48.272;10.794;2023-09-19T08:48:45;95687.09;;;22.57;52.74
10978;BME280;5542;48.272;10.794;2023-09-19T08:51:18;95688.63;;;22.27;52.58
10978;BME280;5542;48.272;10.794;2023-09-19T08:53:52;95689.16;;;22.37;52.88
10978;BME280;5542;48.272;10.794;2023-09-19T08:56:22;95688.13;;;22.47;52.34
10978;BME280;5542;48.272;10.794;2023-09-19T08:58:55;95709.28;;;21.98;53.79
10978;BME280;5542;48.272;10.794;2023-09-19T09:01:24;95704.38;;;21.64;55.22
10978;BME280;5542;48.272;10.794;2023-09-19T09:03:55;95695.53;;;21.78;55.10
10978;BME280;5542;48.272;10.794;2023-09-19T09:06:23;95706.25;;;21.64;55.25
10978;BME280;5542;48.272;10.794;2023-09-19T09:08:51;95707.16;;;21.59;54.84
10978;BME280;5542;48.272;10.794;2023-09-19T09:11:19;95705.97;;;21.65;55.52
10978;BME280;5542;48.272;10.794;2023-09-19T09:13:47;95709.22;;;21.90;55.67
10978;BME280;5542;48.272;10.794;2023-09-19T09:16:14;95711.78;;;21.95;54.35
10978;BME280;5542;48.272;10.794;2023-09-19T09:18:42;95707.78;;;21.92;55.25
10978;BME280;5542;48.272;10.794;2023-09-19T09:21:09;95714.22;;;22.05;57.96
10978;BME280;5542;48.272;10.794;2023-09-19T09:23:36;95705.19;;;22.51;55.16
10978;BME280;5542;48.272;10.794;2023-09-19T09:26:05;95698.75;;;22.83;52.51
10978;BME280;5542;48.272;10.794;2023-09-19T09:28:33;95696.72;;;23.11;52.17
10978;BME280;5542;48.272;10.794;2023-09-19T09:31:01;95695.94;;;23.11;53.10
10978;BME280;5542;48.272;10.794;2023-09-19T09:33:33;95702.16;;;22.89;51.23
10978;BME280;5542;48.272;10.794;2023-09-19T09:36:01;95714.53;;;22.40;50.76
10978;BME280;5542;48.272;10.794;2023-09-19T09:38:30;95712.53;;;22.09;51.90
10978;BME280;5542;48.272;10.794;2023-09-19T09:41:10;95713.81;;;21.98;53.71
10978;BME280;5542;48.272;10.794;2023-09-19T09:43:41;95710.22;;;22.30;52.99
10978;BME280;5542;48.272;10.794;2023-09-19T09:46:12;95716.00;;;22.68;51.83
10978;BME280;5542;48.272;10.794;2023-09-19T09:48:57;95716.38;;;22.53;51.57
10978;BME280;5542;48.272;10.794;2023-09-19T09:51:41;95722.97;;;22.69;52.59
10978;BME280;5542;48.272;10.794;2023-09-19T09:54:12;95718.09;;;22.94;52.07
10978;BME280;5542;48.272;10.794;2023-09-19T09:56:53;95726.03;;;22.99;50.33
10978;BME280;5542;48.272;10.794;2023-09-19T09:59:44;95733.50;;;22.43;51.22
10978;BME280;5542;48.272;10.794;2023-09-19T10:02:12;95734.78;;;21.96;51.50
10978;BME280;5542;48.272;10.794;2023-09-19T10:04:42;95739.06;;;21.69;53.01
10978;BME280;5542;48.272;10.794;2023-09-19T10:07:25;95742.72;;;21.32;53.72
10978;BME280;5542;48.272;10.794;2023-09-19T10:09:53;95747.06;;;21.28;54.76
10978;BME280;5542;48.272;10.794;2023-09-19T10:12:27;95739.16;;;21.37;54.86
10978;BME280;5542;48.272;10.794;2023-09-19T10:14:57;95747.41;;;21.21;55.42
10978;BME280;5542;48.272;10.794;2023-09-19T10:17:26;95745.09;;;21.34;55.23
10978;BME280;5542;48.272;10.794;2023-09-19T10:19:56;95740.25;;;21.36;55.21
10978;BME280;5542;48.272;10.794;2023-09-19T10:22:24;95738.44;;;21.17;56.02
10978;BME280;5542;48.272;10.794;2023-09-19T10:24:53;95741.19;;;21.26;57.09
10978;BME280;5542;48.272;10.794;2023-09-19T10:27:21;95739.16;;;21.51;55.71
10978;BME280;5542;48.272;10.794;2023-09-19T10:29:53;95737.00;;;21.66;54.95
10978;BME280;5542;48.272;10.794;2023-09-19T10:32:22;95746.00;;;21.70;55.35
10978;BME280;5542;48.272;10.794;2023-09-19T10:34:49;95726.97;;;21.86;52.73
10978;BME280;5542;48.272;10.794;2023-09-19T10:37:16;95743.91;;;21.81;54.68
10978;BME280;5542;48.272;10.794;2023-09-19T10:39:46;95739.44;;;21.90;53.37
10978;BME280;5542;48.272;10.794;2023-09-19T10:42:19;95739.34;;;21.54;52.51
10978;BME280;5542;48.272;10.794;2023-09-19T10:44:47;95738.66;;;21.48;53.55
10978;BME280;5542;48.272;10.794;2023-09-19T10:47:20;95745.31;;;21.51;53.27
10978;BME280;5542;48.272;10.794;2023-09-19T10:49:49;95744.31;;;21.47;53.30
10978;BME280;5542;48.272;10.794;2023-09-19T10:52:20;95738.88;;;21.38;52.71
10978;BME280;5542;48.272;10.794;2023-09-19T10:54:50;95744.94;;;21.11;53.19
10978;BME280;5542;48.272;10.794;2023-09-19T10:57:20;95742.84;;;20.94;53.77
10978;BME280;5542;48.272;10.794;2023-09-19T11:00:03;95748.72;;;20.78;54.90
10978;BME280;5542;48.272;10.794;2023-09-19T11:03:18;95749.75;;;20.63;55.50
10978;BME280;5542;48.272;10.794;2023-09-19T11:06:04;95751.16;;;20.74;55.17
10978;BME280;5542;48.272;10.794;2023-09-19T11:08:57;95751.16;;;21.07;56.33
10978;BME280;5542;48.272;10.794;2023-09-19T11:11:43;95743.34;;;21.10;54.60
10978;BME280;5542;48.272;10.794;2023-09-19T11:14:16;95735.81;;;20.99;55.10
10978;BME280;5542;48.272;10.794;2023-09-19T11:20:22;95747.13;;;21.09;56.34
10978;BME280;5542;48.272;10.794;2023-09-19T11:23:21;95751.84;;;21.12;57.84
10978;BME280;5542;48.272;10.794;2023-09-19T11:25:56;95760.31;;;20.87;59.60
10978;BME280;5542;48.272;10.794;2023-09-19T11:28:30;95754.72;;;20.69;61.86
10978;BME280;5542;48.272;10.794;2023-09-19T11:30:56;95762.66;;;20.75;61.45
10978;BME280;5542;48.272;10.794;2023-09-19T11:33:24;95760.03;;;20.56;64.08
10978;BME280;5542;48.272;10.794;2023-09-19T11:36:02;95758.16;;;20.56;64.01
10978;BME280;5542;48.272;10.794;2023-09-19T11:38:57;95752.50;;;20.58;64.22
10978;BME280;5542;48.272;10.794;2023-09-19T11:41:39;95743.94;;;20.75;64.21
10978;BME280;5542;48.272;10.794;2023-09-19T11:44:32;95740.16;;;20.94;62.94
10978;BME280;5542;48.272;10.794;2023-09-19T11:47:00;95740.56;;;21.02;64.94
10978;BME280;5542;48.272;10.794;2023-09-19T11:49:30;95736.03;;;21.30;62.90
10978;BME280;5542;48.272;10.794;2023-09-19T11:51:59;95732.72;;;21.52;61.84
10978;BME280;5542;48.272;10.794;2023-09-19T11:54:30;95734.78;;;21.68;58.41
10978;BME280;5542;48.272;10.794;2023-09-19T11:56:59;95729.84;;;21.62;56.57
10978;BME280;5542;48.272;10.794;2023-09-19T11:59:27;95728.66;;;21.68;56.71
10978;BME280;5542;48.272;10.794;2023-09-19T12:01:56;95726.66;;;21.73;56.48
10978;BME280;5542;48.272;10.794;2023-09-19T12:04:37;95732.22;;;21.77;55.58
10978;BME280;5542;48.272;10.794;2023-09-19T12:07:06;95724.75;;;21.88;55.59
10978;BME280;5542;48.272;10.794;2023-09-19T12:09:39;95727.06;;;21.81;55.39
10978;BME280;5542;48.272;10.794;2023-09-19T12:12:09;95714.75;;;21.93;55.73
10978;BME280;5542;48.272;10.794;2023-09-19T12:14:38;95719.16;;;21.76;54.57
10978;BME280;5542;48.272;10.794;2023-09-19T12:17:07;95714.25;;;21.91;53.43
10978;BME280;5542;48.272;10.794;2023-09-19T12:19:34;95710.56;;;22.01;53.05
10978;BME280;5542;48.272;10.794;2023-09-19T12:22:02;95701.53;;;21.97;52.29
10978;BME280;5542;48.272;10.794;2023-09-19T12:24:32;95717.81;;;21.87;51.74
10978;BME280;5542;48.272;10.794;2023-09-19T12:27:03;95712.38;;;21.78;52.52
10978;BME280;5542;48.272;10.794;2023-09-19T12:29:42;95705.34;;;21.82;52.39
10978;BME280;5542;48.272;10.794;2023-09-19T12:32:09;95702.97;;;21.81;52.87
10978;BME280;5542;48.272;10.794;2023-09-19T12:34:37;95701.28;;;21.85;52.14
10978;BME280;5542;48.272;10.794;2023-09-19T12:37:09;95701.50;;;21.75;52.24
10978;BME280;5542;48.272;10.794;2023-09-19T12:39:43;95695.63;;;21.72;51.14
10978;BME280;5542;48.272;10.794;2023-09-19T12:42:15;95694.84;;;21.72;51.31
10978;BME280;5542;48.272;10.794;2023-09-19T12:44:43;95704.19;;;21.75;51.52
10978;BME280;5542;48.272;10.794;2023-09-19T12:47:11;95696.75;;;21.44;51.28
10978;BME280;5542;48.272;10.794;2023-09-19T12:50:06;95692.50;;;21.43;53.37
10978;BME280;5542;48.272;10.794;2023-09-19T12:52:37;95687.16;;;21.57;53.01
10978;BME280;5542;48.272;10.794;2023-09-19T12:55:05;95687.34;;;21.60;53.13
10978;BME280;5542;48.272;10.794;2023-09-19T12:57:34;95699.63;;;21.75;52.52
10978;BME280;5542;48.272;10.794;2023-09-19T13:00:01;95691.28;;;21.63;53.22
10978;BME280;5542;48.272;10.794;2023-09-19T13:02:31;95700.72;;;21.60;53.74
10978;BME280;5542;48.272;10.794;2023-09-19T13:04:57;95691.28;;;21.77;53.67
10978;BME280;5542;48.272;10.794;2023-09-19T13:07:41;95690.06;;;21.83;53.44
10978;BME280;5542;48.272;10.794;2023-09-19T13:10:13;95686.09;;;21.94;53.75
10978;BME280;5542;48.272;10.794;2023-09-19T13:12:43;95688.03;;;22.02;53.05
10978;BME280;5542;48.272;10.794;2023-09-19T13:15:14;95683.19;;;22.04;53.16
10978;BME280;5542;48.272;10.794;2023-09-19T13:17:46;95679.72;;;22.17;52.46
10978;BME280;5542;48.272;10.794;2023-09-19T13:20:23;95681.28;;;22.18;51.29
10978;BME280;5542;48.272;10.794;2023-09-19T13:22:58;95669.97;;;22.21;52.63